Time;durP1;ratioP1;P1;durP2;ratioP2;P2;SDS_P1;SDS_P2;PMS_P1;PMS_P2;Temp;Humidity;BMP_temperature;BMP_pressure;BME280_temperature;BME280_humidity;BME280_pressure;Samples;Min_cycle;Max_cycle;Signal;HPM_P1;HPM_P2
2022/01/05 00:02:05;;;;;;;20.15;1.38;;;;;;;20.01;42.77;98014.16;5132097;28;20299;-63
2022/01/05 00:04:31;;;;;;;7.07;1.25;;;;;;;20.02;42.82;98010.19;5131861;28;20105;-63
2022/01/05 00:06:56;;;;;;;10.48;1.00;;;;;;;19.99;42.72;97977.66;5131801;28;20364;-63
2022/01/05 00:09:22;;;;;;;5.25;1.02;;;;;;;20.00;42.81;97986.78;5131827;28;20032;-63
2022/01/05 00:11:48;;;;;;;13.95;1.10;;;;;;;19.99;42.79;98001.84;5131516;28;20096;-63
2022/01/05 00:14:13;;;;;;;4.93;0.90;;;;;;;20.01;42.90;98030.00;5131764;28;20486;-63
2022/01/05 00:16:39;;;;;;;4.85;0.80;;;;;;;20.00;42.48;98023.66;5131700;28;20491;-63
2022/01/05 00:19:04;;;;;;;2.97;0.98;;;;;;;20.00;42.52;98084.72;5131615;27;20099;-63
2022/01/05 00:21:30;;;;;;;6.35;0.77;;;;;;;19.99;42.24;98060.91;5130506;28;20059;-63
2022/01/05 00:23:55;;;;;;;2.38;0.52;;;;;;;19.99;42.19;98041.50;5131448;28;20035;-63
2022/01/05 00:26:20;;;;;;;1.27;0.50;;;;;;;19.97;42.20;98063.31;5131608;28;20095;-49
2022/01/05 00:28:46;;;;;;;2.75;0.75;;;;;;;20.01;42.24;98041.13;5131392;28;20047;-49
2022/01/05 00:31:11;;;;;;;2.88;0.52;;;;;;;20.01;42.22;98075.22;5131382;28;20049;-48
2022/01/05 00:33:36;;;;;;;3.30;0.60;;;;;;;20.01;42.14;98093.84;5131362;28;20039;-48
2022/01/05 00:36:03;;;;;;;1.13;0.60;;;;;;;20.01;42.08;98105.75;5131157;28;20081;-63
2022/01/05 00:38:29;;;;;;;2.40;0.40;;;;;;;20.01;41.91;98104.94;5131302;28;20043;-62
2022/01/05 00:40:54;;;;;;;0.77;0.30;;;;;;;20.02;41.81;98151.72;5131421;28;20103;-63
2022/01/05 00:43:20;;;;;;;2.13;0.60;;;;;;;20.03;41.69;98180.28;5131456;28;20054;-62
2022/01/05 00:45:45;;;;;;;2.45;0.35;;;;;;;20.03;41.62;98178.28;5131129;28;20437;-63
2022/01/05 00:48:11;;;;;;;1.63;0.32;;;;;;;20.04;41.49;98229.81;5131171;28;20047;-63
2022/01/05 00:50:36;;;;;;;8.20;0.40;;;;;;;20.04;41.43;98212.38;5130700;28;20099;-63
2022/01/05 00:53:02;;;;;;;1.00;0.47;;;;;;;20.06;41.47;98263.53;5131007;28;20104;-62
2022/01/05 00:55:28;;;;;;;0.77;0.30;;;;;;;20.08;41.34;98259.59;5131192;28;20043;-63
2022/01/05 00:57:54;;;;;;;0.40;0.30;;;;;;;20.07;41.32;98267.09;5131091;28;20468;-63
2022/01/05 01:00:19;;;;;;;0.10;0.10;;;;;;;20.10;41.32;98263.53;5120472;28;20131;-63
2022/01/05 01:02:45;;;;;;;0.68;0.40;;;;;;;20.09;41.20;98303.59;5109947;28;20041;-62
2022/01/05 01:05:11;;;;;;;0.43;0.30;;;;;;;20.09;41.21;98311.91;5124064;28;20058;-63
2022/01/05 01:07:36;;;;;;;0.25;0.20;;;;;;;20.09;40.87;98316.69;5130886;28;20043;-63
2022/01/05 01:10:02;;;;;;;0.20;0.20;;;;;;;20.10;41.12;98324.59;5130799;28;20047;-63
2022/01/05 01:12:28;;;;;;;0.43;0.22;;;;;;;20.12;41.02;98341.66;5130801;28;20054;-63
2022/01/05 01:14:53;;;;;;;0.98;0.13;;;;;;;20.13;41.00;98354.34;5131132;28;20043;-63
2022/01/05 01:17:19;;;;;;;1.85;0.20;;;;;;;20.09;40.84;98345.22;5130829;28;20043;-63
2022/01/05 01:19:44;;;;;;;0.63;0.22;;;;;;;20.16;40.90;98367.44;5130865;28;20506;-49
2022/01/05 01:22:10;;;;;;;0.28;0.20;;;;;;;20.16;40.65;98359.13;5130906;28;20043;-48
2022/01/05 01:24:35;;;;;;;0.32;0.10;;;;;;;20.15;40.64;98360.31;5130914;28;20039;-50
2022/01/05 01:27:01;;;;;;;0.20;0.20;;;;;;;20.14;40.62;98372.56;5130634;28;20047;-48
2022/01/05 01:29:26;;;;;;;2.60;0.20;;;;;;;20.15;40.64;98381.72;5130678;28;20039;-63
2022/01/05 01:31:51;;;;;;;0.28;0.15;;;;;;;20.15;40.58;98393.63;5130441;27;20526;-63
2022/01/05 01:34:17;;;;;;;0.30;0.10;;;;;;;20.17;40.44;98396.00;5130537;28;20070;-63
2022/01/05 01:36:43;;;;;;;0.10;0.10;;;;;;;20.16;40.62;98397.97;5112170;28;20470;-62
2022/01/05 01:39:08;;;;;;;0.73;0.22;;;;;;;20.15;40.47;98390.84;5130662;28;20517;-63
2022/01/05 01:41:34;;;;;;;0.43;0.20;;;;;;;20.17;40.53;98388.47;5130583;28;20042;-63
2022/01/05 01:43:59;;;;;;;0.90;0.20;;;;;;;20.17;40.28;98402.34;5130396;28;20047;-63
2022/01/05 01:46:25;;;;;;;0.20;0.20;;;;;;;20.17;40.44;98409.88;5130409;28;20418;-63
2022/01/05 01:48:50;;;;;;;0.15;0.10;;;;;;;20.17;40.44;98432.88;5130462;28;20039;-63
2022/01/05 01:51:17;;;;;;;0.25;0.20;;;;;;;20.16;40.17;98436.84;5130435;28;20079;-63
2022/01/05 01:53:43;;;;;;;0.10;0.10;;;;;;;20.19;40.17;98438.81;5130476;28;20414;-63
2022/01/05 01:56:11;;;;;;;0.52;0.17;;;;;;;20.19;40.04;98444.38;5130302;28;20086;-63
2022/01/05 01:58:37;;;;;;;0.45;0.10;;;;;;;20.18;40.11;98434.47;5130360;28;20039;-63
2022/01/05 02:01:03;;;;;;;0.30;0.17;;;;;;;20.18;39.90;98433.69;5130270;28;20092;-63
2022/01/05 02:03:28;;;;;;;0.15;0.15;;;;;;;20.21;40.04;98435.66;5130320;28;20039;-63
2022/01/05 02:05:54;;;;;;;0.45;0.20;;;;;;;20.21;39.99;98450.31;5130204;28;20095;-63
2022/01/05 02:08:19;;;;;;;0.20;0.20;;;;;;;20.21;39.95;98450.31;5130219;28;20130;-63
2022/01/05 02:10:46;;;;;;;0.15;0.10;;;;;;;20.22;39.69;98454.72;5130019;28;20064;-63
2022/01/05 02:13:12;;;;;;;0.50;0.20;;;;;;;20.22;39.72;98457.50;5130105;28;20035;-63
2022/01/05 02:15:41;;;;;;;0.30;0.20;;;;;;;20.23;39.62;98459.06;5129938;28;20050;-63
2022/01/05 02:20:32;;;;;;;0.10;0.10;;;;;;;20.19;39.72;98444.38;5129960;28;20055;-49
2022/01/05 02:22:58;;;;;;;0.30;0.15;;;;;;;20.23;39.65;98452.72;5129967;28;20051;-63
2022/01/05 02:25:24;;;;;;;0.40;0.20;;;;;;;20.21;39.78;98446.75;5129999;28;20519;-63
2022/01/05 02:27:52;;;;;;;0.10;0.10;;;;;;;20.24;39.89;98454.31;5130155;28;20051;-63
2022/01/05 02:30:20;;;;;;;0.63;0.30;;;;;;;20.24;39.84;98455.09;5129766;28;20147;-50
2022/01/05 02:32:46;;;;;;;0.40;0.15;;;;;;;20.24;39.76;98457.88;5129874;28;20062;-50
2022/01/05 02:35:11;;;;;;;0.10;0.10;;;;;;;20.25;39.69;98458.69;5129782;28;20039;-48
2022/01/05 02:37:45;;;;;;;0.30;0.20;;;;;;;20.23;39.97;98453.53;5129713;28;20047;-48
2022/01/05 02:40:16;;;;;;;0.00;0.00;;;;;;;20.25;40.03;98455.91;5129821;28;20439;-48
2022/01/05 02:42:43;;;;;;;0.10;0.10;;;;;;;20.24;40.00;98457.88;5129701;27;20039;-50
2022/01/05 02:45:10;;;;;;;1.55;0.10;;;;;;;20.23;39.87;98458.28;5133523;28;20118;-48
2022/01/05 02:47:36;;;;;;;0.13;0.13;;;;;;;20.23;39.96;98459.06;5133381;28;20130;-49
2022/01/05 02:50:03;;;;;;;0.13;0.10;;;;;;;20.24;40.03;98455.09;5133163;28;20060;-48
2022/01/05 02:52:29;;;;;;;0.10;0.10;;;;;;;20.22;40.14;98454.72;5133104;28;20039;-63
2022/01/05 02:54:54;;;;;;;0.10;0.10;;;;;;;20.23;39.93;98452.72;5133181;28;20087;-63
2022/01/05 02:57:19;;;;;;;0.10;0.10;;;;;;;20.21;39.96;98449.53;5133005;28;20064;-63
2022/01/05 02:59:45;;;;;;;0.10;0.10;;;;;;;20.21;40.12;98447.56;5133096;28;20039;-48
2022/01/05 03:02:11;;;;;;;0.20;0.10;;;;;;;20.23;39.95;98442.41;5133017;28;20039;-50
2022/01/05 03:04:37;;;;;;;0.10;0.10;;;;;;;20.24;40.13;98437.66;5132274;28;20035;-49
2022/01/05 03:07:02;;;;;;;1.15;0.20;;;;;;;20.22;40.10;98432.50;5132907;28;20095;-49
2022/01/05 03:09:27;;;;;;;0.30;0.10;;;;;;;20.23;40.10;98430.53;5133020;28;20122;-63
2022/01/05 03:11:53;;;;;;;0.22;0.10;;;;;;;20.23;39.98;98433.28;5132722;28;20143;-63
2022/01/05 03:14:19;;;;;;;0.35;0.20;;;;;;;20.22;40.05;98434.50;5133000;28;20566;-63
2022/01/05 03:16:45;;;;;;;0.43;0.10;;;;;;;20.22;39.92;98435.28;5132765;28;20051;-63
2022/01/05 03:19:10;;;;;;;0.10;0.10;;;;;;;20.23;40.04;98436.06;5132821;28;20122;-63
2022/01/05 03:21:36;;;;;;;0.10;0.10;;;;;;;20.21;39.90;98428.13;5132776;28;20039;-63
2022/01/05 03:24:01;;;;;;;0.47;0.20;;;;;;;20.22;39.87;98423.38;5133692;28;20039;-62
2022/01/05 03:26:27;;;;;;;0.10;0.10;;;;;;;20.20;39.88;98423.75;5134000;28;20115;-64
2022/01/05 03:28:52;;;;;;;0.15;0.15;;;;;;;20.21;39.91;98417.00;5133899;28;20169;-64
2022/01/05 03:31:17;;;;;;;0.40;0.13;;;;;;;20.20;39.95;98429.31;5133238;28;20070;-63
2022/01/05 03:33:43;;;;;;;0.20;0.20;;;;;;;20.20;39.98;98429.31;5132762;28;20133;-48
2022/01/05 03:36:09;;;;;;;0.25;0.10;;;;;;;20.20;40.05;98436.84;5132365;28;20051;-49
2022/01/05 03:38:34;;;;;;;0.10;0.10;;;;;;;20.19;40.00;98441.59;5132393;28;20039;-48
2022/01/05 03:41:00;;;;;;;0.10;0.10;;;;;;;20.19;40.04;98438.03;5132554;28;20043;-48
2022/01/05 03:43:25;;;;;;;0.30;0.20;;;;;;;20.19;40.03;98433.28;5132391;28;20402;-49
2022/01/05 03:45:51;;;;;;;0.20;0.15;;;;;;;20.19;39.94;98429.72;5132407;28;20411;-48
2022/01/05 03:48:18;;;;;;;0.10;0.08;;;;;;;20.20;39.81;98426.53;5132233;28;20430;-48
2022/01/05 03:50:45;;;;;;;0.10;0.10;;;;;;;20.22;39.92;98437.25;5132095;28;20388;-49
2022/01/05 03:53:10;;;;;;;0.35;0.20;;;;;;;20.23;39.94;98436.06;5132239;28;20044;-49
2022/01/05 03:55:38;;;;;;;0.10;0.10;;;;;;;20.21;39.76;98439.22;5132114;27;20047;-48
2022/01/05 03:58:04;;;;;;;0.28;0.17;;;;;;;20.20;39.70;98436.84;5132020;28;20039;-49
2022/01/05 04:00:31;;;;;;;0.30;0.10;;;;;;;20.24;39.88;98437.66;5131971;28;20054;-48
2022/01/05 04:02:58;;;;;;;0.32;0.20;;;;;;;20.24;39.74;98438.44;5131794;28;20039;-48
2022/01/05 04:05:24;;;;;;;0.25;0.20;;;;;;;20.23;39.71;98434.09;5131874;28;20133;-49
2022/01/05 04:07:49;;;;;;;0.30;0.10;;;;;;;20.25;39.79;98451.13;5132074;28;20122;-63
2022/01/05 04:10:16;;;;;;;0.20;0.20;;;;;;;20.25;39.83;98444.78;5131968;28;20042;-63
2022/01/05 04:12:41;;;;;;;0.10;0.10;;;;;;;20.24;39.95;98444.00;5131778;28;20044;-49
2022/01/05 04:15:07;;;;;;;0.70;0.30;;;;;;;20.25;39.70;98448.38;5131780;28;20398;-52
2022/01/05 04:17:33;;;;;;;0.52;0.15;;;;;;;20.25;39.60;98450.34;5131741;28;20101;-63
2022/01/05 04:19:58;;;;;;;0.40;0.30;;;;;;;20.25;39.63;98461.47;5131596;28;20047;-63
2022/01/05 04:22:24;;;;;;;0.20;0.20;;;;;;;20.26;39.77;98463.03;5131754;28;20103;-63
2022/01/05 04:24:49;;;;;;;0.30;0.20;;;;;;;20.26;39.74;98468.59;5132021;28;20107;-63
2022/01/05 04:27:15;;;;;;;0.30;0.20;;;;;;;20.25;39.59;98465.03;5131675;28;20051;-63
2022/01/05 04:29:42;;;;;;;0.25;0.20;;;;;;;20.26;39.58;98457.47;5131677;28;20098;-63
2022/01/05 04:32:08;;;;;;;0.38;0.20;;;;;;;20.24;39.53;98457.88;5131428;28;20054;-63
2022/01/05 04:34:33;;;;;;;0.52;0.20;;;;;;;20.27;39.55;98454.31;5131375;28;20039;-63
2022/01/05 04:36:59;;;;;;;0.30;0.20;;;;;;;20.25;39.61;98444.78;5131340;28;20046;-63
2022/01/05 04:39:24;;;;;;;0.57;0.20;;;;;;;20.26;39.48;98454.72;5131405;28;20035;-63
2022/01/05 04:41:50;;;;;;;0.45;0.28;;;;;;;20.24;39.52;98446.78;5131300;28;20047;-63
2022/01/05 04:44:15;;;;;;;0.10;0.10;;;;;;;20.27;39.42;98451.53;5131358;28;20089;-63
2022/01/05 04:46:40;;;;;;;0.55;0.20;;;;;;;20.24;39.50;98446.78;5131422;28;20084;-63
2022/01/05 04:49:06;;;;;;;0.20;0.20;;;;;;;20.26;39.41;98457.47;5131357;28;20047;-63
2022/01/05 04:51:31;;;;;;;0.30;0.20;;;;;;;20.26;39.60;98457.47;5131312;28;20042;-63
2022/01/05 04:53:57;;;;;;;0.32;0.20;;;;;;;20.26;39.60;98455.50;5131123;28;20469;-63
2022/01/05 04:56:22;;;;;;;0.15;0.15;;;;;;;20.26;39.47;98446.38;5131129;28;20611;-62
2022/01/05 04:58:48;;;;;;;0.25;0.10;;;;;;;20.25;39.30;98442.00;5131229;28;20031;-63
2022/01/05 05:01:15;;;;;;;0.38;0.20;;;;;;;20.26;39.30;98454.72;5131197;28;20039;-63
2022/01/05 05:03:40;;;;;;;0.20;0.10;;;;;;;20.25;39.60;98456.69;5130932;28;20054;-63
2022/01/05 05:06:06;;;;;;;0.20;0.20;;;;;;;20.25;39.44;98455.91;5129828;27;20047;-62
2022/01/05 05:08:31;;;;;;;0.10;0.10;;;;;;;20.24;39.59;98455.09;5130986;28;20051;-63
2022/01/05 05:10:56;;;;;;;0.13;0.10;;;;;;;20.24;39.46;98457.88;5131117;28;20039;-63
2022/01/05 05:13:22;;;;;;;0.20;0.20;;;;;;;20.25;39.52;98456.69;5130819;28;20043;-63
2022/01/05 05:15:47;;;;;;;0.20;0.20;;;;;;;20.26;39.34;98449.16;5130628;28;20043;-63
2022/01/05 05:18:13;;;;;;;0.20;0.20;;;;;;;20.24;39.39;98449.56;5130842;28;20417;-63
2022/01/05 05:20:40;;;;;;;0.10;0.10;;;;;;;20.26;39.38;98449.16;5130740;28;20054;-63
2022/01/05 05:23:06;;;;;;;0.10;0.10;;;;;;;20.26;39.36;98444.41;5130815;28;20050;-48
2022/01/05 05:25:31;;;;;;;0.20;0.10;;;;;;;20.26;39.48;98457.47;5130889;28;20035;-49
2022/01/05 05:27:57;;;;;;;0.20;0.20;;;;;;;20.26;39.66;98460.25;5130875;28;20035;-50
2022/01/05 05:30:22;;;;;;;0.10;0.10;;;;;;;20.27;39.66;98454.31;5130684;28;20126;-48
2022/01/05 05:32:47;;;;;;;0.20;0.10;;;;;;;20.27;39.45;98465.41;5130637;28;20100;-50
2022/01/05 05:35:14;;;;;;;0.28;0.10;;;;;;;20.24;39.47;98454.31;5148708;27;20064;-48
2022/01/05 05:37:40;;;;;;;0.40;0.30;;;;;;;20.27;39.55;98457.09;5151198;27;20038;-48
2022/01/05 05:40:06;;;;;;;0.13;0.10;;;;;;;20.26;39.59;98461.06;5151146;27;20079;-63
2022/01/05 05:42:32;;;;;;;0.30;0.10;;;;;;;20.27;39.58;98465.41;5151156;27;20042;-63
2022/01/05 05:44:57;;;;;;;0.20;0.17;;;;;;;20.28;39.36;98458.66;5151167;27;20066;-62
2022/01/05 05:47:23;;;;;;;0.10;0.10;;;;;;;20.29;39.52;98462.28;5132327;27;20050;-63
2022/01/05 05:49:48;;;;;;;0.32;0.20;;;;;;;20.29;39.52;98465.03;5151031;27;20563;-63
2022/01/05 05:52:15;;;;;;;0.10;0.10;;;;;;;20.28;39.42;98455.09;5150919;27;20443;-63
2022/01/05 05:54:40;;;;;;;0.28;0.20;;;;;;;20.30;39.43;98456.31;5151060;27;20422;-62
2022/01/05 05:57:06;;;;;;;0.52;0.20;;;;;;;20.30;39.57;98449.97;5150984;27;20498;-63
2022/01/05 05:59:32;;;;;;;0.50;0.30;;;;;;;20.33;39.65;98451.94;5150931;27;20043;-63
2022/01/05 06:01:57;;;;;;;0.65;0.20;;;;;;;20.34;39.38;98450.75;5150704;27;20410;-63
2022/01/05 06:04:23;;;;;;;0.43;0.28;;;;;;;20.33;39.38;98451.94;5150915;27;20046;-49
2022/01/05 06:06:48;;;;;;;0.40;0.22;;;;;;;20.34;39.64;98457.09;5150768;27;20043;-49
2022/01/05 06:09:14;;;;;;;0.20;0.20;;;;;;;20.33;39.41;98449.16;5150836;27;20061;-48
2022/01/05 06:11:39;;;;;;;0.20;0.20;;;;;;;20.34;39.37;98451.53;5150852;27;20046;-48
2022/01/05 06:14:04;;;;;;;0.30;0.20;;;;;;;20.33;39.46;98455.50;5150785;27;20035;-49
2022/01/05 06:16:30;;;;;;;0.40;0.30;;;;;;;20.34;39.50;98459.88;5150629;27;20111;-63
2022/01/05 06:18:55;;;;;;;0.57;0.30;;;;;;;20.34;39.58;98462.66;5133748;27;20543;-63
2022/01/05 06:21:21;;;;;;;0.22;0.22;;;;;;;20.35;39.60;98466.22;5154265;27;20450;-63
2022/01/05 06:23:46;;;;;;;0.50;0.40;;;;;;;20.34;39.51;98475.75;5154227;27;20050;-63
2022/01/05 06:26:12;;;;;;;1.75;0.40;;;;;;;20.37;39.58;98479.72;5154086;27;20096;-64
2022/01/05 06:28:37;;;;;;;9.65;0.90;;;;;;;20.38;39.77;98468.22;5154346;27;20442;-62
2022/01/05 06:31:02;;;;;;;8.98;0.63;;;;;;;20.39;39.72;98467.03;5154192;27;20042;-62
2022/01/05 06:33:28;;;;;;;2.10;0.50;;;;;;;20.41;39.73;98469.41;5154002;27;20093;-62
2022/01/05 06:35:53;;;;;;;1.35;0.60;;;;;;;20.42;39.61;98471.00;5154105;27;20074;-57
2022/01/05 06:38:18;;;;;;;10.77;0.90;;;;;;;20.40;39.63;98476.94;5154131;27;20050;-57
2022/01/05 06:40:44;;;;;;;3.63;0.50;;;;;;;20.40;39.70;98479.72;5154193;27;20126;-57
2022/01/05 06:43:09;;;;;;;1.80;0.52;;;;;;;20.39;39.63;98475.38;5154183;27;20428;-57
2022/01/05 06:45:35;;;;;;;3.25;0.60;;;;;;;20.41;39.73;98472.97;5154024;27;20039;-57
2022/01/05 06:48:00;;;;;;;3.95;0.55;;;;;;;20.42;39.68;98476.53;5154062;27;20042;-57
2022/01/05 06:50:26;;;;;;;1.48;0.70;;;;;;;20.42;39.74;98471.00;5153825;27;20046;-57
2022/01/05 06:52:53;;;;;;;2.53;0.47;;;;;;;20.42;39.70;98482.09;5153725;27;20045;-57
2022/01/05 06:55:18;;;;;;;4.25;0.57;;;;;;;20.42;39.79;98482.91;5153724;27;20134;-62
2022/01/05 06:57:44;;;;;;;1.83;0.40;;;;;;;20.41;39.70;98474.97;5153864;27;20098;-62
2022/01/05 07:00:11;;;;;;;6.03;0.70;;;;;;;20.41;39.60;98478.53;5153710;27;20418;-62
2022/01/05 07:02:37;;;;;;;0.45;0.30;;;;;;;20.44;39.47;98482.53;5153425;27;20053;-62
2022/01/05 07:05:04;;;;;;;2.60;0.65;;;;;;;20.44;39.48;98474.19;5153228;27;20038;-61
2022/01/05 07:07:29;;;;;;;0.63;0.40;;;;;;;20.42;39.68;98473.78;5153609;27;20039;-62
2022/01/05 07:09:55;;;;;;;0.82;0.30;;;;;;;20.43;39.46;98478.94;5134841;27;20128;-62
2022/01/05 07:12:20;;;;;;;0.73;0.40;;;;;;;20.42;39.63;98482.09;5153358;27;20034;-62
2022/01/05 07:14:45;;;;;;;0.77;0.50;;;;;;;20.43;39.70;98483.69;5153460;27;20054;-62
2022/01/05 07:17:11;;;;;;;0.40;0.40;;;;;;;20.41;39.66;98481.31;5153143;27;20074;-62
2022/01/05 07:19:37;;;;;;;2.35;0.57;;;;;;;20.42;39.66;98482.91;5152916;27;20051;-62
2022/01/05 07:22:02;;;;;;;1.23;0.93;;;;;;;20.39;39.66;98466.25;5153458;27;20038;-62
2022/01/05 07:24:28;;;;;;;0.60;0.40;;;;;;;20.42;39.70;98491.22;5153309;27;20104;-62
2022/01/05 07:26:53;;;;;;;1.75;0.50;;;;;;;20.42;39.44;98488.44;5152992;27;20107;-62
2022/01/05 07:29:19;;;;;;;0.63;0.50;;;;;;;20.42;39.62;98482.09;5153031;27;20054;-62
2022/01/05 07:31:45;;;;;;;0.82;0.50;;;;;;;20.40;39.67;98481.72;5153368;27;20051;-62
2022/01/05 07:34:11;;;;;;;2.30;0.50;;;;;;;20.40;39.63;98479.72;5152401;27;20053;-62
2022/01/05 07:36:37;;;;;;;2.45;0.50;;;;;;;20.40;39.48;98482.50;5152911;27;20051;-62
2022/01/05 07:39:05;;;;;;;0.60;0.40;;;;;;;20.41;39.57;98477.75;5153314;27;20556;-62
2022/01/05 07:41:34;;;;;;;0.52;0.47;;;;;;;20.41;39.46;98474.97;5148772;27;20541;-62
2022/01/05 07:44:00;;;;;;;0.80;0.40;;;;;;;20.39;39.60;98467.03;5152892;27;20137;-62
2022/01/05 07:46:26;;;;;;;0.50;0.40;;;;;;;20.38;39.59;98475.75;5151095;27;20051;-62
2022/01/05 07:48:52;;;;;;;0.98;0.52;;;;;;;20.36;39.50;98478.94;5148200;27;20035;-62
2022/01/05 07:51:18;;;;;;;4.00;0.40;;;;;;;20.36;39.33;98481.72;5130997;27;20154;-60
2022/01/05 07:53:43;;;;;;;0.40;0.40;;;;;;;20.38;38.97;98481.31;5131976;28;20474;-58
2022/01/05 07:56:09;;;;;;;1.65;0.50;;;;;;;20.46;39.06;98482.94;5128945;27;20044;-59
2022/01/05 07:58:35;;;;;;;0.30;0.30;;;;;;;20.52;38.78;98487.72;5141977;27;20532;-59
2022/01/05 08:01:03;;;;;;;0.73;0.43;;;;;;;20.60;38.91;98485.75;5140714;27;20039;-58
2022/01/05 08:03:30;;;;;;;0.63;0.47;;;;;;;20.67;38.59;98488.53;5149600;27;20055;-58
2022/01/05 08:05:56;;;;;;;0.70;0.52;;;;;;;20.72;38.62;98504.03;5146513;27;20043;-61
2022/01/05 08:08:21;;;;;;;1.15;0.70;;;;;;;20.78;38.43;98500.41;5141144;27;20147;-58
2022/01/05 08:10:47;;;;;;;0.90;0.65;;;;;;;20.83;38.12;98508.38;5142193;27;20125;-61
2022/01/05 08:13:12;;;;;;;1.77;0.80;;;;;;;20.85;38.04;98510.75;5142682;27;20107;-58
2022/01/05 08:15:37;;;;;;;0.82;0.57;;;;;;;20.86;38.05;98504.81;5143180;27;20042;-59
2022/01/05 08:18:03;;;;;;;1.00;0.60;;;;;;;20.86;38.27;98504.03;5151756;27;20043;-58
2022/01/05 08:20:28;;;;;;;2.03;0.70;;;;;;;20.82;38.41;98512.34;5134094;27;20074;-58
2022/01/05 08:22:54;;;;;;;1.58;0.70;;;;;;;20.84;38.54;98521.06;5125457;27;20524;-59
2022/01/05 08:25:20;;;;;;;1.20;0.70;;;;;;;20.81;38.61;98513.53;5127378;27;20430;-58
2022/01/05 08:27:46;;;;;;;1.00;0.55;;;;;;;20.80;38.57;98516.72;5124721;27;20073;-58
2022/01/05 08:30:20;;;;;;;3.17;0.70;;;;;;;20.80;38.92;98516.72;5129071;27;20425;-57
2022/01/05 08:32:47;;;;;;;1.10;0.70;;;;;;;20.79;38.69;98520.69;5127182;27;20554;-57
2022/01/05 08:35:14;;;;;;;1.33;0.70;;;;;;;20.77;38.87;98520.28;5131794;27;20048;-57
2022/01/05 08:37:44;;;;;;;1.00;0.70;;;;;;;20.74;38.78;98538.53;5124568;27;20066;-56
2022/01/05 08:40:12;;;;;;;0.73;0.43;;;;;;;20.73;38.80;98514.72;5124511;27;20047;-58
2022/01/05 08:42:38;;;;;;;2.28;0.60;;;;;;;20.73;38.80;98530.59;5126753;27;20201;-55
2022/01/05 08:45:04;;;;;;;2.03;0.60;;;;;;;20.70;38.83;98537.72;5133079;27;20750;-56
2022/01/05 08:47:30;;;;;;;0.70;0.40;;;;;;;20.71;38.82;98533.75;5131343;27;20063;-62
2022/01/05 08:49:56;;;;;;;0.85;0.50;;;;;;;20.72;38.83;98542.91;5127038;27;20459;-59
2022/01/05 08:52:21;;;;;;;1.40;0.57;;;;;;;20.71;38.55;98538.53;5130524;27;20043;-59
2022/01/05 08:54:48;;;;;;;3.17;0.40;;;;;;;20.70;38.40;98534.97;5126625;27;20043;-59
2022/01/05 08:57:14;;;;;;;0.73;0.47;;;;;;;20.70;38.27;98536.94;5131514;27;20051;-59
2022/01/05 08:59:40;;;;;;;0.45;0.30;;;;;;;20.69;38.40;98540.91;5128580;27;20421;-60
2022/01/05 09:02:06;;;;;;;1.38;0.30;;;;;;;20.68;38.05;98540.13;5127938;27;20088;-59
2022/01/05 09:04:32;;;;;;;0.68;0.43;;;;;;;20.68;38.13;98556.00;5129604;27;20448;-58
2022/01/05 09:06:58;;;;;;;0.75;0.35;;;;;;;20.66;38.01;98553.63;5130223;27;20043;-60
2022/01/05 09:09:24;;;;;;;0.50;0.30;;;;;;;20.67;38.36;98548.84;5130782;27;20514;-61
2022/01/05 09:11:49;;;;;;;0.73;0.47;;;;;;;20.63;38.79;98543.28;5123492;27;20065;-60
2022/01/05 09:14:14;;;;;;;1.00;0.40;;;;;;;20.66;38.71;98548.06;5128975;27;20054;-60
2022/01/05 09:16:40;;;;;;;0.65;0.45;;;;;;;20.69;38.72;98546.47;5128613;27;20050;-61
2022/01/05 09:19:06;;;;;;;0.60;0.40;;;;;;;20.70;38.38;98556.41;5127323;27;20479;-59
2022/01/05 09:21:31;;;;;;;1.17;0.40;;;;;;;20.67;38.39;98538.53;5127181;27;20104;-57
2022/01/05 09:23:57;;;;;;;1.13;0.50;;;;;;;20.69;38.47;98540.91;5129833;27;20080;-57
2022/01/05 09:26:22;;;;;;;4.32;0.57;;;;;;;20.69;38.17;98574.25;5124593;27;20182;-57
2022/01/05 09:28:49;;;;;;;1.10;0.43;;;;;;;20.69;37.84;98558.38;5125790;27;20389;-57
2022/01/05 09:31:15;;;;;;;0.55;0.38;;;;;;;20.71;37.94;98564.34;5118768;27;20531;-56
2022/01/05 09:33:40;;;;;;;0.75;0.45;;;;;;;20.70;37.67;98562.75;5127060;27;21055;-57
2022/01/05 09:36:14;;;;;;;0.60;0.35;;;;;;;20.68;37.60;98561.56;5130005;27;20412;-57
2022/01/05 09:43:56;;;;;;;1.15;0.55;;;;;;;20.67;37.20;98588.56;5127803;27;20566;-60
2022/01/05 09:47:03;;;;;;;0.68;0.30;;;;;;;20.64;36.91;98616.31;5123997;27;20206;-61
2022/01/05 09:49:35;;;;;;;0.30;0.28;;;;;;;20.61;36.94;98606.78;5124118;27;20038;-60
2022/01/05 09:52:10;;;;;;;1.45;0.40;;;;;;;20.59;36.85;98609.19;5124359;27;20123;-61
2022/01/05 09:54:42;;;;;;;8.57;0.35;;;;;;;20.59;36.75;98614.72;5141130;27;20387;-61
2022/01/05 09:57:08;;;;;;;0.40;0.28;;;;;;;20.56;36.36;98609.94;5142062;27;20042;-58
2022/01/05 09:59:35;;;;;;;86.40;4.40;;;;;;;20.55;36.56;98598.03;5136012;27;20191;-57
2022/01/05 10:02:02;;;;;;;42.05;2.55;;;;;;;20.55;36.64;98636.13;5129058;27;20235;-57
2022/01/05 10:04:29;;;;;;;30.65;1.77;;;;;;;20.56;36.19;98626.63;5127710;27;20446;-57
2022/01/05 10:06:55;;;;;;;17.58;1.73;;;;;;;20.53;36.04;98602.41;5129784;27;20450;-57
2022/01/05 10:09:21;;;;;;;14.77;1.63;;;;;;;20.52;35.96;98618.28;5128965;27;20514;-61
2022/01/05 10:11:47;;;;;;;16.02;1.55;;;;;;;20.52;35.77;98621.06;5130670;27;20074;-62
2022/01/05 10:14:13;;;;;;;13.45;1.08;;;;;;;20.53;35.61;98625.44;5128921;27;20078;-62
2022/01/05 10:17:02;;;;;;;5.95;1.05;;;;;;;20.51;35.63;98625.03;5133367;27;20047;-61
2022/01/05 10:19:27;;;;;;;9.52;0.82;;;;;;;20.53;35.35;98628.22;5134057;27;20039;-62
2022/01/05 10:21:53;;;;;;;6.20;0.60;;;;;;;20.51;35.53;98610.34;5135825;27;20397;-61
2022/01/05 10:24:39;;;;;;;5.32;0.90;;;;;;;20.53;35.44;98621.84;5137682;27;20043;-61
2022/01/05 10:27:04;;;;;;;4.45;0.70;;;;;;;20.53;35.32;98627.41;5121097;27;20103;-62
2022/01/05 10:29:30;;;;;;;1.25;0.50;;;;;;;20.53;35.33;98630.19;5142438;27;20042;-61
2022/01/05 10:31:56;;;;;;;1.90;0.45;;;;;;;20.53;35.15;98610.75;5139750;27;20418;-61
2022/01/05 10:34:25;;;;;;;6.00;0.70;;;;;;;20.55;34.91;98630.59;5146619;27;20073;-62
2022/01/05 10:36:53;;;;;;;4.10;0.60;;;;;;;20.55;34.97;98652.81;5134687;27;20047;-61
2022/01/05 10:39:26;;;;;;;3.05;0.40;;;;;;;20.55;34.80;98617.50;5146681;27;20491;-61
2022/01/05 10:41:52;;;;;;;0.95;0.68;;;;;;;20.55;34.71;98641.69;5138113;27;20043;-61
2022/01/05 10:44:20;;;;;;;2.22;0.40;;;;;;;20.53;35.05;98603.19;5141471;27;20073;-62
2022/01/05 10:46:50;;;;;;;1.40;0.38;;;;;;;20.53;34.78;98616.31;5144553;27;20458;-56
2022/01/05 10:49:35;;;;;;;1.92;0.43;;;;;;;20.53;34.98;98630.97;5143067;27;20039;-58
2022/01/05 10:52:26;;;;;;;3.33;0.40;;;;;;;20.53;35.23;98632.97;5139216;27;20046;-61
2022/01/05 10:54:53;;;;;;;1.00;0.40;;;;;;;20.53;35.16;98621.84;5143576;27;20430;-60
2022/01/05 10:57:19;;;;;;;0.52;0.20;;;;;;;20.53;35.29;98627.41;5140781;27;20809;-60
2022/01/05 10:59:48;;;;;;;1.25;0.40;;;;;;;20.51;35.23;98619.47;5139020;27;20502;-62
2022/01/05 11:02:25;;;;;;;0.73;0.35;;;;;;;20.50;34.99;98620.66;5135203;27;20040;-61
2022/01/05 11:04:54;;;;;;;1.75;0.30;;;;;;;20.49;35.00;98621.81;5139714;27;20493;-61
2022/01/05 11:07:26;;;;;;;1.27;0.40;;;;;;;20.48;34.90;98627.78;5141817;27;20529;-60
2022/01/05 11:10:01;;;;;;;1.17;0.32;;;;;;;20.48;34.90;98636.13;5125716;27;20036;-61
2022/01/05 11:12:36;;;;;;;3.72;0.40;;;;;;;20.47;34.65;98653.97;5132733;27;20448;-60
2022/01/05 11:15:31;;;;;;;1.27;0.30;;;;;;;20.46;34.41;98632.94;5140224;27;20046;-60
2022/01/05 11:18:08;;;;;;;0.80;0.30;;;;;;;20.46;34.40;98644.06;5142864;27;20046;-61
2022/01/05 11:20:33;;;;;;;0.60;0.40;;;;;;;20.47;34.28;98642.88;5146092;27;20042;-61
2022/01/05 11:22:59;;;;;;;0.57;0.30;;;;;;;20.48;33.99;98639.69;5134819;27;20074;-61
2022/01/05 11:25:26;;;;;;;0.77;0.30;;;;;;;20.51;33.69;98638.13;5137434;27;20070;-60
2022/01/05 11:27:54;;;;;;;0.40;0.30;;;;;;;20.51;33.67;98629.78;5138542;27;20069;-61
2022/01/05 11:30:20;;;;;;;0.75;0.43;;;;;;;20.52;33.68;98634.16;5141043;27;20076;-61
2022/01/05 11:32:46;;;;;;;0.20;0.20;;;;;;;20.54;33.53;98640.13;5142827;27;20139;-61
2022/01/05 11:35:12;;;;;;;0.70;0.38;;;;;;;20.55;33.59;98631.38;5143858;27;20043;-60
2022/01/05 11:37:37;;;;;;;0.43;0.30;;;;;;;20.52;33.52;98621.06;5148645;27;20038;-61
2022/01/05 11:40:05;;;;;;;0.70;0.40;;;;;;;20.56;33.22;98632.97;5139621;27;20414;-61